Nearby METAR Reports

 

KMTN - Baltimore/Martin, Maryland, USA
Distance from station: SSE 8mi, 13km
Updated: Mon, 02-Mar-2015 5:50pm EST
Clear
Clear
 Wind from WNW
Wind: WNW 16 mph , 26 km/h, Gust: 25 mph , 41 km/h
Temperature: 37°F , 3°C
Wind Chill: 28°F , -2°C
Dew Point: 16°F , -9°C
Humidity: 41%
Barometer: 30.34 inHg , 1027.4 hPa
Clouds: Clear
Visibility: 10 miles , 16 km
2015/03/02 22:50 KMTN 022250Z 30014G22KT 10SM SKC 03/M09 A3034
KDMH - Baltimore/Dwntwn, Maryland, USA
Distance from station: SW 12mi, 19km
Updated: Mon, 02-Mar-2015 4:54pm EST

 
Temperature: 1°F , -17°C
Dew Point: 1°F , -17°C
Humidity: 100%
Barometer: 30.29 inHg , 1025.7 hPa
2015/03/02 21:54 KDMH 022154Z AUTO M17/M17 A3029 RMK AO1 SLP257 T11721172 $
 
KBWI - Balto/Wash Intl, Maryland, USA
Distance from station: SSW 20mi, 33km
Updated: Mon, 02-Mar-2015 5:54pm EST
Partly cloudy
Partly cloudy
 Wind from WNW
Wind: WNW 10 mph , 17 km/h, Gust: 21 mph , 33 km/h
Temperature: 37°F , 3°C
Wind Chill: 30°F , -1°C
Dew Point: 14°F , -10°C
Humidity: 38%
Barometer: 30.33 inHg , 1027.1 hPa
Clouds: Partly cloudy
Visibility: 10 miles , 16 km
Cloud details: Few Clouds 18000 ft
Partly cloudy 25000 ft
2015/03/02 22:54 KBWI 022254Z 30009G18KT 10SM FEW180 SCT250 03/M10 A3033 RMK AO2 SLP273 T00281100
KDMW - Carroll Cnty, Maryland, USA
Distance from station: WNW 30mi, 48km
Updated: Mon, 02-Mar-2015 5:35pm EST
Clear
Clear
 Wind from NW
Wind: NW 9 mph , 15 km/h
Temperature: 34°F , 1°C
Wind Chill: 27°F , -3°C
Dew Point: 12°F , -11°C
Humidity: 41%
Barometer: 30.30 inHg , 1026.1 hPa
Clouds: Clear
Visibility: 10 miles , 16 km
2015/03/02 22:35 KDMW 022235Z AUTO 32008KT 10SM CLR 01/M11 A3030 RMK AO2
 
KNAK - Annapolis/Naval, Maryland, USA
Distance from station: S 30mi, 48km
Updated: Mon, 02-Mar-2015 4:54pm EST
Clear
Clear
 Wind from WNW
Wind: WNW 9 mph , 15 km/h
Temperature: 39°F , 4°C
Wind Chill: 33°F , 1°C
Dew Point: 12°F , -11°C
Humidity: 33%
Barometer: 30.31 inHg , 1026.4 hPa
Clouds: Clear
Visibility: 10 miles , 16 km
2015/03/02 21:54 KNAK 022154Z AUTO 30008KT 10SM CLR 04/M11 A3031 RMK AO2 SLP264 T00441106
KW29 - Stevensville, Maryland, USA
Distance from station: SSE 31mi, 50km
Updated: Mon, 02-Mar-2015 5:37pm EST

 Wind from WNW
Wind: WNW 10 mph , 17 km/h
Temperature: 37°F , 3°C
Wind Chill: 30°F , -1°C
Dew Point: 18°F , -8°C
Humidity: 45%
Barometer: 30.33 inHg , 1027.1 hPa
Visibility: 10 miles , 16 km
2015/03/02 22:37 KW29 022237Z AUTO 30009KT 10SM 03/M08 A3033 RMK AO1
 
KCGS - College Park, Maryland, USA
Distance from station: SW 38mi, 61km
Updated: Mon, 02-Mar-2015 5:35pm EST
Clear
Clear
 Wind from NW
Wind: NW 8 mph , 13 km/h, Gust: 24 mph , 39 km/h
Temperature: 39°F , 4°C
Wind Chill: 33°F , 1°C
Dew Point: 14°F , -10°C
Humidity: 36%
Barometer: 30.33 inHg , 1027.1 hPa
Clouds: Clear
Visibility: 10 miles , 16 km
2015/03/02 22:35 KCGS 022235Z AUTO 32007G21KT 10SM CLR 04/M10 A3033 RMK AO1
KGAI - Gaithersburg, Maryland, USA
Distance from station: WSW 40mi, 65km
Updated: Mon, 02-Mar-2015 5:55pm EST
Clear
Clear
 Wind from NW
Wind: NW 10 mph , 17 km/h
Temperature: 36°F , 2°C
Wind Chill: 29°F , -2°C
Dew Point: 12°F , -11°C
Humidity: 38%
Barometer: 30.38 inHg , 1028.8 hPa
Clouds: Clear
Visibility: 10 miles , 16 km
2015/03/02 22:55 KGAI 022255Z AUTO 31009KT 10SM CLR 02/M11 A3038 RMK AO1
 
KTHV - York, Pennsylvania, USA
Distance from station: NNW 40mi, 65km
Updated: Mon, 02-Mar-2015 5:53pm EST
Clear
Clear
 Wind from NW
Wind: NW 12 mph , 19 km/h
Temperature: 30°F , -1°C
Wind Chill: 20°F , -7°C
Dew Point: 16°F , -9°C
Humidity: 55%
Barometer: 30.33 inHg , 1027.1 hPa
Clouds: Clear
Visibility: 10 miles , 16 km
2015/03/02 22:53 KTHV 022253Z AUTO 31010KT 10SM CLR M01/M09 A3033 RMK AO2 SLP277 T10061094
KFDK - Frederick, Maryland, USA
Distance from station: W 47mi, 75km
Updated: Mon, 02-Mar-2015 5:50pm EST
Clear
Clear
 Wind from NNW
Wind: NNW 8 mph , 13 km/h, Gust: 16 mph , 26 km/h
Temperature: 37°F , 3°C
Wind Chill: 31°F , -1°C
Dew Point: 10°F , -12°C
Humidity: 33%
Barometer: 30.39 inHg , 1029.1 hPa
Clouds: Clear
Visibility: 10 miles , 16 km
2015/03/02 22:50 KFDK 022250Z 34007G14KT 10SM SKC 03/M12 A3039
 
KESN - Easton/Newnam, Maryland, USA
Distance from station: SSE 48mi, 78km
Updated: Mon, 02-Mar-2015 5:50pm EST
Few Clouds
Few Clouds
 Wind from NW
Wind: NW 7 mph , 11 km/h
Temperature: 37°F , 3°C
Wind Chill: 32°F , 0°C
Dew Point: 19°F , -7°C
Humidity: 48%
Barometer: 30.36 inHg , 1028.1 hPa
Clouds: Few Clouds
Visibility: 10 miles , 16 km
Cloud details: Few Clouds 25000 ft
2015/03/02 22:50 KESN 022250Z 32006KT 10SM FEW250 03/M07 A3036
KDCA - Washington/Natl, Washington D.c., USA
Distance from station: SW 49mi, 79km
Updated: Mon, 02-Mar-2015 5:52pm EST
Few Clouds
Few Clouds
 Wind from NNW
Wind: NNW 16 mph , 26 km/h
Temperature: 41°F , 5°C
Wind Chill: 33°F , 1°C
Dew Point: 16°F , -9°C
Humidity: 36%
Barometer: 30.36 inHg , 1028.1 hPa
Clouds: Few Clouds
Visibility: 10 miles , 16 km
Cloud details: Few Clouds 25000 ft
2015/03/02 22:52 KDCA 022252Z 34014KT 10SM FEW250 05/M09 A3036 RMK AO2 SLP279 T00501089 $
 
KLNS - Lancaster, Pennsylvania, USA
Distance from station: N 49mi, 79km
Updated: Mon, 02-Mar-2015 5:53pm EST
Clear
Clear
 Wind from WNW
Wind: WNW 16 mph , 26 km/h
Temperature: 30°F , -1°C
Wind Chill: 19°F , -7°C
Dew Point: 16°F , -9°C
Humidity: 55%
Barometer: 30.29 inHg , 1025.7 hPa
Clouds: Clear
Visibility: 10 miles , 16 km
2015/03/02 22:53 KLNS 022253Z 29014KT 10SM CLR M01/M09 A3029 RMK AO2 SLP263 T10061094
KILG - Wilmington, Delaware, USA
Distance from station: ENE 50mi, 81km
Updated: Mon, 02-Mar-2015 5:51pm EST
Clear
Clear
 Wind from NW
Wind: NW 20 mph , 31 km/h, Gust: 26 mph , 43 km/h
Temperature: 34°F , 1°C
Wind Chill: 23°F , -5°C
Dew Point: 18°F , -8°C
Humidity: 51%
Barometer: 30.30 inHg , 1026.1 hPa
Clouds: Clear
Visibility: 10 miles , 16 km
2015/03/02 22:51 KILG 022251Z 32017G23KT 10SM CLR 01/M08 A3030 RMK AO2 SLP262 T00111083